Time;durP1;ratioP1;P1;durP2;ratioP2;P2;SDS_P1;SDS_P2;PMS_P1;PMS_P2;Temp;Humidity;BMP_temperature;BMP_pressure;BME280_temperature;BME280_humidity;BME280_pressure;Samples;Min_cycle;Max_cycle;Signal;HPM_P1;HPM_P2
2023/11/08 00:01:47;;;;;;;1.05;0.95;;;15.80;68.20;;;;;;5132800;28;20207;-65
2023/11/08 00:04:13;;;;;;;2.53;1.50;;;15.80;68.10;;;;;;5133382;28;20212;-65
2023/11/08 00:06:39;;;;;;;1.35;1.25;;;15.80;68.10;;;;;;5133856;28;20168;-65
2023/11/08 00:09:05;;;;;;;1.77;1.10;;;15.80;68.10;;;;;;5132563;28;20690;-65
2023/11/08 00:11:30;;;;;;;2.17;1.30;;;15.80;68.10;;;;;;5133526;28;20173;-65
2023/11/08 00:13:57;;;;;;;2.13;1.30;;;15.80;68.10;;;;;;5133466;28;20176;-65
2023/11/08 00:16:22;;;;;;;1.33;1.10;;;15.70;67.90;;;;;;5132363;28;20631;-64
2023/11/08 00:18:48;;;;;;;1.42;1.27;;;15.70;68.10;;;;;;5133683;28;20179;-64
2023/11/08 00:21:13;;;;;;;1.83;1.13;;;15.70;68.10;;;;;;5133171;28;20596;-65
2023/11/08 00:23:42;;;;;;;2.33;1.20;;;15.70;68.10;;;;;;5132689;28;20200;-66
2023/11/08 00:26:08;;;;;;;0.95;0.93;;;15.70;68.10;;;;;;5133116;28;20180;-64
2023/11/08 00:28:33;;;;;;;1.40;1.30;;;15.70;68.10;;;;;;5133584;28;20188;-65
2023/11/08 00:30:59;;;;;;;1.98;1.10;;;15.70;68.20;;;;;;5132530;27;20674;-65
2023/11/08 00:33:24;;;;;;;1.50;1.17;;;15.70;68.20;;;;;;5136457;27;20169;-65
2023/11/08 00:35:50;;;;;;;2.08;1.35;;;15.70;68.20;;;;;;5137272;27;20259;-66
2023/11/08 00:38:16;;;;;;;2.00;1.40;;;15.70;68.20;;;;;;5136159;27;20247;-66
2023/11/08 00:40:42;;;;;;;1.30;1.17;;;15.70;68.20;;;;;;5137012;27;20272;-66
2023/11/08 00:43:08;;;;;;;1.80;1.08;;;15.70;68.10;;;;;;5136795;27;20221;-64
2023/11/08 00:45:34;;;;;;;1.67;1.58;;;15.70;68.20;;;;;;5136326;27;20661;-64
2023/11/08 00:48:01;;;;;;;1.23;1.13;;;15.70;68.20;;;;;;5136532;27;20683;-64
2023/11/08 00:50:27;;;;;;;1.35;1.25;;;15.70;68.20;;;;;;5136894;27;20251;-64
2023/11/08 00:52:53;;;;;;;1.20;1.10;;;15.70;68.80;;;;;;5136170;27;20217;-65
2023/11/08 00:55:19;;;;;;;2.53;1.20;;;15.60;68.20;;;;;;5135819;27;20192;-64
2023/11/08 00:57:44;;;;;;;1.15;1.05;;;15.60;68.10;;;;;;5136197;27;20568;-65
2023/11/08 01:00:10;;;;;;;1.40;1.27;;;15.60;68.20;;;;;;5136578;27;20203;-65
2023/11/08 01:02:36;;;;;;;1.15;1.05;;;15.60;68.10;;;;;;5136712;27;20220;-65
2023/11/08 01:05:01;;;;;;;1.20;1.13;;;15.70;68.30;;;;;;5135651;27;21034;-65
2023/11/08 01:07:27;;;;;;;1.38;1.23;;;15.60;68.20;;;;;;5136541;27;20176;-65
2023/11/08 01:09:52;;;;;;;1.60;1.50;;;15.60;68.30;;;;;;5136356;27;20563;-65
2023/11/08 01:12:18;;;;;;;1.30;1.20;;;15.60;68.30;;;;;;5135336;27;20627;-65
2023/11/08 01:14:44;;;;;;;1.10;0.98;;;15.60;68.10;;;;;;5136524;27;20177;-65
2023/11/08 01:17:10;;;;;;;1.27;1.15;;;15.60;68.20;;;;;;5136044;27;20198;-64
2023/11/08 01:19:36;;;;;;;1.25;1.20;;;15.60;68.30;;;;;;5135764;27;20590;-65
2023/11/08 01:22:05;;;;;;;1.40;0.93;;;15.60;68.30;;;;;;5135992;27;20177;-65
2023/11/08 01:24:34;;;;;;;1.40;1.30;;;15.60;68.30;;;;;;5136128;27;20679;-65
2023/11/08 01:27:03;;;;;;;1.13;1.02;;;15.60;68.30;;;;;;5135077;27;20263;-65
2023/11/08 01:29:30;;;;;;;1.85;1.58;;;15.60;68.30;;;;;;5136115;27;20252;-65
2023/11/08 01:31:56;;;;;;;2.90;1.27;;;15.50;68.30;;;;;;5136147;27;20172;-65
2023/11/08 01:34:21;;;;;;;1.58;1.05;;;15.60;68.40;;;;;;5134987;27;20179;-65
2023/11/08 01:36:47;;;;;;;2.60;1.02;;;15.60;68.50;;;;;;5135929;27;20184;-65
2023/11/08 01:39:13;;;;;;;1.75;1.30;;;15.60;68.40;;;;;;5135492;27;20169;-65
2023/11/08 01:41:44;;;;;;;1.10;1.00;;;15.60;68.50;;;;;;5135143;27;20676;-64
2023/11/08 01:44:12;;;;;;;1.48;1.10;;;15.60;68.50;;;;;;5135706;27;20224;-65
2023/11/08 01:46:38;;;;;;;2.00;1.10;;;15.60;68.50;;;;;;5135919;27;20200;-65
2023/11/08 01:49:04;;;;;;;1.40;1.30;;;15.60;68.50;;;;;;5116355;27;20240;-64
2023/11/08 01:51:30;;;;;;;1.50;1.02;;;15.60;68.60;;;;;;5135623;27;20649;-64
2023/11/08 01:53:55;;;;;;;1.15;1.02;;;15.60;68.60;;;;;;5135401;27;20267;-65
2023/11/08 01:56:21;;;;;;;1.45;1.10;;;15.60;68.60;;;;;;5099928;27;20260;-65
2023/11/08 01:58:46;;;;;;;1.50;1.20;;;15.60;68.60;;;;;;5117455;27;20165;-65
2023/11/08 02:01:12;;;;;;;1.30;1.13;;;15.60;68.70;;;;;;5099333;27;20191;-65
2023/11/08 02:03:39;;;;;;;1.73;1.23;;;15.60;68.70;;;;;;5135391;27;20318;-65
2023/11/08 02:06:06;;;;;;;1.00;0.90;;;15.60;68.70;;;;;;5134991;27;20183;-65
2023/11/08 02:08:31;;;;;;;2.25;1.10;;;15.50;68.70;;;;;;5134519;27;20176;-66
2023/11/08 02:10:58;;;;;;;0.88;0.80;;;15.50;69.50;;;;;;5117164;27;20180;-65
2023/11/08 02:13:24;;;;;;;1.00;1.00;;;15.60;68.70;;;;;;5135254;27;20204;-65
2023/11/08 02:15:49;;;;;;;1.48;1.35;;;15.50;68.70;;;;;;5134448;27;20173;-65
2023/11/08 02:18:15;;;;;;;1.38;1.15;;;15.50;68.70;;;;;;5134851;27;20317;-65
2023/11/08 02:20:41;;;;;;;1.48;1.35;;;15.50;68.80;;;;;;5135095;27;20164;-64
2023/11/08 02:23:07;;;;;;;1.13;1.00;;;15.60;68.80;;;;;;5134146;27;20291;-65
2023/11/08 02:25:32;;;;;;;1.85;1.42;;;15.50;68.70;;;;;;5135206;27;20324;-65
2023/11/08 02:27:58;;;;;;;1.38;1.05;;;15.50;68.80;;;;;;5134638;27;20176;-65
2023/11/08 02:30:23;;;;;;;1.98;1.08;;;15.50;68.80;;;;;;5134230;27;20173;-65
2023/11/08 02:32:52;;;;;;;1.75;0.90;;;15.50;68.80;;;;;;5134793;27;20172;-66
2023/11/08 02:35:18;;;;;;;1.30;1.20;;;15.50;68.70;;;;;;5134488;27;20176;-65
2023/11/08 02:37:44;;;;;;;1.83;1.33;;;15.50;68.80;;;;;;5134244;27;20172;-66
2023/11/08 02:40:11;;;;;;;1.67;1.30;;;15.50;68.80;;;;;;5134605;27;20537;-65
2023/11/08 02:42:40;;;;;;;1.60;1.15;;;15.50;68.90;;;;;;5134657;27;20230;-65
2023/11/08 02:45:06;;;;;;;2.10;1.40;;;15.50;68.80;;;;;;5133768;27;20172;-65
2023/11/08 02:47:32;;;;;;;0.90;0.90;;;15.50;68.90;;;;;;5134583;27;20176;-64
2023/11/08 02:50:01;;;;;;;1.42;0.90;;;15.50;68.90;;;;;;5134369;27;20173;-65
2023/11/08 02:52:26;;;;;;;1.33;1.23;;;15.50;69.00;;;;;;5134265;27;20176;-65
2023/11/08 02:54:52;;;;;;;1.13;1.02;;;15.50;68.90;;;;;;5134033;27;20520;-65
2023/11/08 02:57:18;;;;;;;1.70;1.33;;;15.50;69.80;;;;;;5133699;27;20179;-66
2023/11/08 02:59:45;;;;;;;1.33;1.23;;;15.50;68.90;;;;;;5134313;27;20705;-66
2023/11/08 03:02:10;;;;;;;0.90;0.90;;;15.50;69.00;;;;;;5133861;27;20177;-65
2023/11/08 03:04:37;;;;;;;1.40;1.30;;;15.50;68.90;;;;;;5133407;27;21020;-65
2023/11/08 03:07:04;;;;;;;1.30;1.20;;;15.50;69.00;;;;;;5133708;27;20172;-66
2023/11/08 03:09:29;;;;;;;1.42;1.33;;;15.50;68.90;;;;;;5134191;27;20565;-66
2023/11/08 03:11:58;;;;;;;1.70;1.27;;;15.50;69.00;;;;;;5133484;27;20175;-66
2023/11/08 03:14:26;;;;;;;1.40;1.30;;;15.40;68.90;;;;;;5133926;27;20196;-65
2023/11/08 03:16:53;;;;;;;1.52;1.40;;;15.40;68.90;;;;;;5134129;27;20180;-64
2023/11/08 03:19:21;;;;;;;2.10;1.20;;;15.40;68.90;;;;;;5133137;27;20177;-65
2023/11/08 03:21:47;;;;;;;1.05;1.02;;;15.40;68.90;;;;;;5133888;27;20273;-65
2023/11/08 03:24:13;;;;;;;1.40;1.30;;;15.40;68.90;;;;;;5133695;27;20226;-65
2023/11/08 03:26:39;;;;;;;1.65;1.33;;;15.40;68.90;;;;;;5133285;27;20169;-66
2023/11/08 03:29:05;;;;;;;1.20;1.10;;;15.40;68.90;;;;;;5133620;27;20205;-65
2023/11/08 03:31:31;;;;;;;1.67;1.33;;;15.40;68.90;;;;;;5133794;27;20168;-65
2023/11/08 03:33:57;;;;;;;1.83;1.52;;;15.40;68.80;;;;;;5133152;27;20271;-66
2023/11/08 03:36:24;;;;;;;1.75;1.50;;;15.40;68.90;;;;;;5133637;27;20638;-66
2023/11/08 03:38:50;;;;;;;1.77;1.33;;;15.40;68.80;;;;;;5133891;27;20173;-66
2023/11/08 03:41:16;;;;;;;1.45;1.35;;;15.40;68.90;;;;;;5132742;27;20168;-65
2023/11/08 03:43:41;;;;;;;1.92;1.23;;;15.40;68.90;;;;;;5133573;28;20666;-65
2023/11/08 03:46:07;;;;;;;1.55;1.10;;;15.40;68.90;;;;;;5133364;28;20168;-65
2023/11/08 03:48:32;;;;;;;1.40;1.30;;;15.40;69.00;;;;;;5132878;28;20215;-65
2023/11/08 03:50:58;;;;;;;1.42;1.30;;;15.40;68.90;;;;;;5133540;28;20172;-65
2023/11/08 03:53:24;;;;;;;1.80;1.25;;;15.40;68.90;;;;;;5133833;28;20177;-65
2023/11/08 03:55:50;;;;;;;1.50;1.40;;;15.40;68.90;;;;;;5132970;28;20627;-66
2023/11/08 03:58:16;;;;;;;1.30;1.20;;;15.40;68.90;;;;;;5133316;28;20176;-66
2023/11/08 04:00:42;;;;;;;1.30;1.30;;;15.30;68.90;;;;;;5132985;28;20195;-66
2023/11/08 04:03:07;;;;;;;1.52;1.42;;;15.30;68.90;;;;;;5133132;28;20216;-66
2023/11/08 04:05:33;;;;;;;1.52;1.33;;;15.30;68.90;;;;;;5133710;28;20181;-66
2023/11/08 04:07:59;;;;;;;2.03;1.55;;;15.30;68.90;;;;;;5135246;27;20225;-66
2023/11/08 04:10:25;;;;;;;1.70;1.50;;;15.30;68.90;;;;;;5137515;27;20164;-66
2023/11/08 04:12:50;;;;;;;1.48;1.10;;;15.30;68.90;;;;;;5137708;27;20187;-65
2023/11/08 04:15:17;;;;;;;1.73;1.63;;;15.30;68.90;;;;;;5136506;27;20168;-65
2023/11/08 04:17:42;;;;;;;1.35;1.25;;;15.30;68.90;;;;;;5137798;27;20209;-65
2023/11/08 04:20:12;;;;;;;1.40;1.30;;;15.30;68.90;;;;;;5137176;27;20558;-65
2023/11/08 04:22:40;;;;;;;1.73;1.40;;;15.30;68.90;;;;;;5136752;27;20291;-65
2023/11/08 04:25:06;;;;;;;2.03;1.50;;;15.30;68.90;;;;;;5137079;27;20695;-66
2023/11/08 04:27:31;;;;;;;1.33;1.23;;;15.30;68.90;;;;;;5137260;27;20179;-65
2023/11/08 04:29:57;;;;;;;1.50;1.40;;;15.30;68.90;;;;;;5136461;27;20176;-66
2023/11/08 04:32:22;;;;;;;1.60;1.50;;;15.30;68.90;;;;;;5137257;27;20520;-65
2023/11/08 04:34:49;;;;;;;2.50;1.58;;;15.30;68.70;;;;;;5137103;27;20543;-66
2023/11/08 04:37:14;;;;;;;1.40;1.30;;;15.30;68.90;;;;;;5135995;27;20172;-66
2023/11/08 04:39:46;;;;;;;1.58;1.30;;;15.30;68.60;;;;;;5137232;27;20188;-65
2023/11/08 04:42:13;;;;;;;2.25;1.23;;;15.30;68.90;;;;;;5136619;27;20179;-66
2023/11/08 04:44:38;;;;;;;1.52;1.30;;;15.30;68.90;;;;;;5136463;27;20184;-65
2023/11/08 04:47:04;;;;;;;1.48;1.20;;;15.30;68.80;;;;;;5136764;27;20165;-65
2023/11/08 04:49:30;;;;;;;1.20;1.10;;;15.30;69.70;;;;;;5136724;27;20698;-65
2023/11/08 04:51:55;;;;;;;2.55;1.55;;;15.30;68.90;;;;;;5136228;27;20256;-65
2023/11/08 04:54:21;;;;;;;1.67;1.50;;;15.30;68.90;;;;;;5136590;27;20195;-66
2023/11/08 04:56:47;;;;;;;2.10;1.58;;;15.30;68.90;;;;;;5136621;27;20539;-65
2023/11/08 04:59:14;;;;;;;1.40;1.30;;;15.20;68.80;;;;;;5135699;27;20168;-66
2023/11/08 05:01:42;;;;;;;2.80;1.40;;;15.30;68.90;;;;;;5136643;27;20176;-68
2023/11/08 05:04:08;;;;;;;1.95;1.23;;;15.30;68.90;;;;;;5135450;27;20208;-64
2023/11/08 05:06:33;;;;;;;1.50;1.40;;;15.30;68.90;;;;;;5136561;27;20175;-64
2023/11/08 05:08:59;;;;;;;2.45;1.33;;;15.20;68.80;;;;;;5136208;27;20182;-65
2023/11/08 05:11:25;;;;;;;1.58;1.33;;;15.20;68.80;;;;;;5135673;27;20172;-65
2023/11/08 05:13:50;;;;;;;2.47;1.52;;;15.20;68.80;;;;;;5136390;27;20501;-64
2023/11/08 05:16:22;;;;;;;2.30;1.40;;;15.20;68.80;;;;;;5135987;27;20168;-64
2023/11/08 05:18:48;;;;;;;2.30;1.65;;;15.20;69.70;;;;;;5135198;27;20180;-64
2023/11/08 05:21:13;;;;;;;2.10;1.40;;;15.20;68.60;;;;;;5136013;27;20175;-64
2023/11/08 05:23:39;;;;;;;1.55;1.40;;;15.20;68.70;;;;;;5136183;27;20219;-65
2023/11/08 05:26:06;;;;;;;2.45;1.38;;;15.20;69.50;;;;;;5135031;27;20165;-64
2023/11/08 05:28:32;;;;;;;1.67;1.17;;;15.20;68.80;;;;;;5136341;27;20196;-64
2023/11/08 05:31:00;;;;;;;4.13;2.55;;;15.20;68.80;;;;;;5136085;27;20617;-64
2023/11/08 05:33:26;;;;;;;1.67;1.35;;;15.20;68.80;;;;;;5135491;27;20198;-64
2023/11/08 05:35:51;;;;;;;1.10;1.10;;;15.20;68.50;;;;;;5136077;27;20611;-65
2023/11/08 05:38:17;;;;;;;1.33;1.23;;;15.20;68.80;;;;;;5135742;27;20180;-65
2023/11/08 05:40:42;;;;;;;2.00;1.27;;;15.20;68.80;;;;;;5135257;27;20188;-65
2023/11/08 05:43:08;;;;;;;1.27;1.17;;;15.20;68.80;;;;;;5135610;27;20216;-64
2023/11/08 05:45:33;;;;;;;2.15;1.90;;;15.20;68.80;;;;;;5135924;27;20630;-63
2023/11/08 05:47:59;;;;;;;1.60;1.50;;;15.20;68.80;;;;;;5134703;27;20212;-64
2023/11/08 05:50:24;;;;;;;1.60;1.35;;;15.20;68.80;;;;;;5135767;27;20537;-63
2023/11/08 05:52:52;;;;;;;1.95;1.27;;;15.20;68.80;;;;;;5135883;27;20176;-64
2023/11/08 05:55:18;;;;;;;1.83;1.20;;;15.20;68.80;;;;;;5134734;27;20223;-65
2023/11/08 05:57:44;;;;;;;1.33;1.23;;;15.20;68.80;;;;;;5135809;27;20204;-65
2023/11/08 06:00:10;;;;;;;1.85;1.48;;;15.10;68.80;;;;;;5134271;27;20216;-65
2023/11/08 06:02:36;;;;;;;1.80;1.30;;;15.20;68.80;;;;;;5135482;27;20204;-64
2023/11/08 06:05:04;;;;;;;2.25;1.25;;;15.10;68.80;;;;;;5135207;27;20241;-65
2023/11/08 06:07:30;;;;;;;2.58;1.40;;;15.20;68.80;;;;;;5134589;27;20180;-65
2023/11/08 06:09:57;;;;;;;1.77;1.10;;;15.20;68.80;;;;;;5135211;27;20187;-65
2023/11/08 06:12:24;;;;;;;1.98;1.20;;;15.20;68.70;;;;;;5135200;27;20413;-65
2023/11/08 06:14:50;;;;;;;1.42;1.10;;;15.30;68.70;;;;;;5134678;27;20221;-64
2023/11/08 06:17:15;;;;;;;1.42;1.10;;;15.30;68.60;;;;;;5134885;27;20165;-65
2023/11/08 06:19:41;;;;;;;1.45;1.02;;;15.30;68.60;;;;;;5135210;27;20531;-65
2023/11/08 06:22:06;;;;;;;1.17;1.13;;;15.30;68.40;;;;;;5134133;27;20259;-65
2023/11/08 06:24:32;;;;;;;1.60;1.30;;;15.30;69.30;;;;;;5134886;27;20207;-65
2023/11/08 06:27:00;;;;;;;1.17;1.05;;;15.30;68.40;;;;;;5135014;27;20242;-65
2023/11/08 06:29:26;;;;;;;2.22;1.10;;;15.30;68.50;;;;;;5133558;27;20183;-64
2023/11/08 06:31:51;;;;;;;1.75;1.63;;;15.30;68.50;;;;;;5134895;27;20177;-65
2023/11/08 06:34:17;;;;;;;2.40;1.58;;;15.30;68.50;;;;;;5134663;27;20188;-66
2023/11/08 06:36:42;;;;;;;1.40;1.10;;;15.30;68.50;;;;;;5134177;27;20623;-66
2023/11/08 06:39:12;;;;;;;1.02;1.02;;;15.30;68.60;;;;;;5134321;27;20180;-66
2023/11/08 06:41:38;;;;;;;1.45;1.30;;;15.30;68.60;;;;;;5134644;27;20176;-66
2023/11/08 06:44:05;;;;;;;1.98;1.17;;;15.20;68.50;;;;;;5133787;27;20231;-65
2023/11/08 06:46:31;;;;;;;1.80;1.33;;;15.30;68.60;;;;;;5134700;27;20172;-65
2023/11/08 06:48:57;;;;;;;1.83;1.50;;;15.30;68.60;;;;;;5134498;27;20224;-65
2023/11/08 06:51:23;;;;;;;2.17;1.38;;;15.30;68.70;;;;;;5133670;27;20263;-65
2023/11/08 06:53:50;;;;;;;1.65;1.23;;;15.20;68.70;;;;;;5134675;27;20211;-66
2023/11/08 06:56:15;;;;;;;2.25;1.05;;;15.20;68.50;;;;;;5134251;27;20225;-65
2023/11/08 06:58:41;;;;;;;2.45;1.25;;;15.20;68.60;;;;;;5133633;27;20171;-66
2023/11/08 07:01:07;;;;;;;1.42;1.20;;;15.20;68.60;;;;;;5133997;27;20172;-65
2023/11/08 07:03:33;;;;;;;1.38;1.20;;;15.20;68.60;;;;;;5133493;27;20212;-65
2023/11/08 07:05:59;;;;;;;2.25;0.95;;;15.20;68.70;;;;;;5133890;27;20192;-66
2023/11/08 07:08:24;;;;;;;1.10;1.00;;;15.20;68.70;;;;;;5134219;27;20176;-65
2023/11/08 07:10:51;;;;;;;1.50;0.90;;;15.30;68.60;;;;;;5133501;27;20175;-65
2023/11/08 07:13:16;;;;;;;1.05;0.95;;;15.40;68.50;;;;;;5133785;27;20181;-65
2023/11/08 07:15:42;;;;;;;1.08;0.98;;;15.50;68.40;;;;;;5134279;27;20192;-65
2023/11/08 07:18:14;;;;;;;1.17;1.00;;;15.60;68.20;;;;;;5133236;27;20174;-65
2023/11/08 07:20:44;;;;;;;1.60;1.25;;;15.80;67.90;;;;;;5134291;27;20246;-65
2023/11/08 07:23:10;;;;;;;1.48;1.10;;;15.90;67.70;;;;;;5133651;27;20215;-65
2023/11/08 07:25:36;;;;;;;1.20;0.80;;;16.20;67.30;;;;;;5133456;27;20174;-66
2023/11/08 07:28:03;;;;;;;1.27;0.93;;;16.40;66.80;;;;;;5133798;27;20229;-65
2023/11/08 07:30:28;;;;;;;1.73;1.20;;;16.60;66.40;;;;;;5133835;27;20634;-65
2023/11/08 07:32:54;;;;;;;0.88;0.88;;;16.70;65.90;;;;;;5133172;27;20190;-66
2023/11/08 07:35:19;;;;;;;0.93;0.93;;;17.00;65.10;;;;;;5133629;27;20164;-66
2023/11/08 07:37:48;;;;;;;3.00;0.90;;;17.20;64.30;;;;;;5133779;27;20526;-66
2023/11/08 07:40:13;;;;;;;1.58;1.05;;;17.40;64.10;;;;;;5133025;27;20183;-66
2023/11/08 07:42:42;;;;;;;1.00;0.95;;;17.50;63.60;;;;;;5133784;27;20196;-65
2023/11/08 07:45:08;;;;;;;1.75;0.85;;;17.60;63.30;;;;;;5133392;28;20168;-64
2023/11/08 07:47:34;;;;;;;0.75;0.60;;;17.70;63.00;;;;;;5132791;28;20183;-64
2023/11/08 07:49:59;;;;;;;1.13;0.98;;;17.70;62.80;;;;;;5133448;28;20176;-65
2023/11/08 07:52:25;;;;;;;1.05;0.80;;;17.80;62.70;;;;;;5133988;28;20164;-65
2023/11/08 07:54:52;;;;;;;1.20;0.70;;;17.80;62.50;;;;;;5132938;28;20176;-66
2023/11/08 07:57:18;;;;;;;0.80;0.80;;;17.80;62.30;;;;;;5133250;28;20184;-66
2023/11/08 07:59:44;;;;;;;1.77;0.63;;;17.80;62.40;;;;;;5132997;28;20184;-66
2023/11/08 08:02:09;;;;;;;1.10;0.80;;;17.80;62.40;;;;;;5133276;28;20627;-65
2023/11/08 08:04:35;;;;;;;1.20;0.68;;;17.80;62.50;;;;;;5133477;28;20215;-66
2023/11/08 08:07:06;;;;;;;1.45;0.90;;;17.80;62.50;;;;;;5132755;28;20179;-66
2023/11/08 08:09:32;;;;;;;0.65;0.60;;;17.80;62.50;;;;;;5133724;28;20169;-66
2023/11/08 08:11:57;;;;;;;0.85;0.82;;;17.80;62.50;;;;;;5133502;28;20224;-66
2023/11/08 08:14:24;;;;;;;1.10;1.00;;;17.80;62.30;;;;;;5132807;28;20511;-65
2023/11/08 08:16:50;;;;;;;1.45;0.65;;;17.80;62.50;;;;;;5133598;28;20191;-65
2023/11/08 08:19:16;;;;;;;0.80;0.80;;;17.70;62.50;;;;;;5133349;28;20211;-66
2023/11/08 08:21:43;;;;;;;1.42;0.75;;;17.70;62.80;;;;;;5132992;28;20551;-66
2023/11/08 08:24:09;;;;;;;1.05;0.68;;;17.60;63.20;;;;;;5133112;28;20641;-66
2023/11/08 08:26:35;;;;;;;0.90;0.80;;;17.50;63.30;;;;;;5133543;28;20234;-65
2023/11/08 08:29:01;;;;;;;1.17;0.80;;;17.40;63.30;;;;;;5132444;28;20176;-66
2023/11/08 08:31:30;;;;;;;1.02;0.80;;;17.50;63.40;;;;;;5133367;28;20173;-65
2023/11/08 08:33:56;;;;;;;1.25;0.70;;;17.50;63.40;;;;;;5133500;28;20172;-66
2023/11/08 08:36:22;;;;;;;1.48;1.05;;;17.40;63.70;;;;;;5132493;28;20594;-66
2023/11/08 08:38:51;;;;;;;0.82;0.77;;;17.40;63.60;;;;;;5133482;28;20683;-65
2023/11/08 08:41:18;;;;;;;0.90;0.63;;;17.50;63.70;;;;;;5133008;28;20165;-66
2023/11/08 08:43:43;;;;;;;0.93;0.82;;;17.50;63.50;;;;;;5132543;28;20216;-66
2023/11/08 08:46:09;;;;;;;0.65;0.60;;;17.60;63.40;;;;;;5132867;28;20264;-65
2023/11/08 08:48:34;;;;;;;1.63;0.90;;;17.60;63.50;;;;;;5133110;28;20311;-65
2023/11/08 08:51:02;;;;;;;0.90;0.82;;;17.50;63.40;;;;;;5132057;28;20251;-65
2023/11/08 08:53:28;;;;;;;1.27;0.60;;;17.30;63.60;;;;;;5134550;27;20668;-66
2023/11/08 08:55:53;;;;;;;1.23;0.80;;;17.30;64.20;;;;;;5136896;27;20165;-67
2023/11/08 08:58:19;;;;;;;1.48;0.90;;;17.20;64.10;;;;;;5135904;27;20233;-66
2023/11/08 09:00:45;;;;;;;0.80;0.80;;;17.20;64.30;;;;;;5136687;27;20179;-66
2023/11/08 09:03:10;;;;;;;0.70;0.70;;;17.30;64.30;;;;;;5135652;27;20216;-65
2023/11/08 09:05:36;;;;;;;1.88;0.70;;;17.30;64.30;;;;;;5136806;27;20173;-66
2023/11/08 09:08:02;;;;;;;0.75;0.75;;;17.30;64.20;;;;;;5136606;27;20179;-66
2023/11/08 09:10:28;;;;;;;1.45;0.80;;;17.40;64.00;;;;;;5135903;27;20255;-66
2023/11/08 09:12:54;;;;;;;1.92;1.15;;;17.40;63.90;;;;;;5136344;27;20271;-66
2023/11/08 09:15:19;;;;;;;0.90;0.80;;;17.30;64.00;;;;;;5136230;27;20185;-65
2023/11/08 09:17:45;;;;;;;1.05;1.00;;;17.20;64.20;;;;;;5135892;27;20693;-65
2023/11/08 09:20:11;;;;;;;0.70;0.70;;;17.20;64.70;;;;;;5135948;27;20536;-65
2023/11/08 09:22:36;;;;;;;1.20;1.10;;;17.10;64.80;;;;;;5136190;27;20177;-65
2023/11/08 09:25:04;;;;;;;1.15;0.90;;;17.00;65.00;;;;;;5135345;27;20176;-66
2023/11/08 09:27:30;;;;;;;0.93;0.80;;;17.00;65.20;;;;;;5136197;27;20667;-65
2023/11/08 09:29:56;;;;;;;1.38;1.00;;;17.00;65.20;;;;;;5136107;27;20203;-65
2023/11/08 09:32:22;;;;;;;1.10;0.60;;;17.00;65.20;;;;;;5135244;27;20319;-65
2023/11/08 09:34:49;;;;;;;2.60;0.80;;;17.00;65.30;;;;;;5136217;27;20301;-66
2023/11/08 09:37:16;;;;;;;3.28;1.10;;;17.00;65.60;;;;;;5135791;27;20296;-66
2023/11/08 09:39:43;;;;;;;1.10;0.88;;;16.90;65.60;;;;;;5134670;27;20241;-66
2023/11/08 09:42:09;;;;;;;1.08;0.90;;;17.00;65.80;;;;;;5135694;27;20173;-65
2023/11/08 09:44:34;;;;;;;2.15;1.05;;;16.90;65.80;;;;;;5117480;27;20204;-64
2023/11/08 09:47:00;;;;;;;0.80;0.80;;;16.90;66.00;;;;;;5116544;27;20634;-65
2023/11/08 09:49:25;;;;;;;1.77;1.00;;;16.90;66.10;;;;;;5135686;27;20231;-65
2023/11/08 09:51:52;;;;;;;1.42;1.10;;;16.80;66.20;;;;;;5135895;27;20216;-65
2023/11/08 09:54:17;;;;;;;0.93;0.80;;;16.80;66.40;;;;;;5134693;27;20180;-66
2023/11/08 09:56:45;;;;;;;1.00;0.90;;;16.80;66.50;;;;;;5135687;27;20172;-65
2023/11/08 09:59:13;;;;;;;2.20;1.00;;;16.70;66.50;;;;;;5135193;27;20253;-66
2023/11/08 10:01:39;;;;;;;1.45;0.90;;;16.70;66.60;;;;;;5135339;27;20169;-65
2023/11/08 10:04:05;;;;;;;1.10;1.00;;;16.70;66.80;;;;;;5099498;28;20557;-65
2023/11/08 10:06:32;;;;;;;1.00;0.90;;;16.60;66.60;;;;;;5098935;27;20165;-66
2023/11/08 10:08:58;;;;;;;1.52;1.00;;;16.60;66.70;;;;;;5135304;27;20251;-66
2023/11/08 10:11:27;;;;;;;1.05;0.90;;;16.60;66.60;;;;;;5135343;27;20169;-66
2023/11/08 10:13:54;;;;;;;1.38;1.00;;;16.60;66.60;;;;;;5134699;27;20281;-65
2023/11/08 10:16:23;;;;;;;0.90;0.90;;;16.60;66.60;;;;;;5135162;27;20176;-65
2023/11/08 10:18:58;;;;;;;1.17;1.00;;;16.70;66.80;;;;;;5135297;27;20168;-65
2023/11/08 10:21:26;;;;;;;1.55;0.98;;;16.60;66.70;;;;;;5134515;27;20171;-66
2023/11/08 10:23:54;;;;;;;1.13;0.98;;;16.60;66.70;;;;;;5134989;27;20215;-66
2023/11/08 10:26:25;;;;;;;2.55;1.20;;;16.60;66.80;;;;;;5135035;27;20172;-65
2023/11/08 10:28:57;;;;;;;1.08;0.90;;;16.60;66.80;;;;;;5134517;27;20173;-66
2023/11/08 10:31:29;;;;;;;1.38;1.00;;;16.60;66.80;;;;;;5134614;27;20680;-66
2023/11/08 10:33:58;;;;;;;0.75;0.75;;;16.60;66.80;;;;;;5134998;27;20661;-65
2023/11/08 10:36:24;;;;;;;2.65;1.10;;;16.60;66.80;;;;;;5133318;27;20267;-66
2023/11/08 10:38:49;;;;;;;1.70;0.93;;;16.60;66.80;;;;;;5134747;27;20195;-66
2023/11/08 10:41:16;;;;;;;1.85;0.98;;;16.60;66.90;;;;;;5116101;27;20622;-66
2023/11/08 10:43:43;;;;;;;1.20;0.73;;;16.50;66.80;;;;;;5133942;27;20212;-66
2023/11/08 10:46:10;;;;;;;2.15;1.10;;;16.50;66.80;;;;;;5134410;27;20164;-65
2023/11/08 10:48:35;;;;;;;1.05;0.80;;;16.50;67.00;;;;;;5133787;27;20224;-65
2023/11/08 10:51:01;;;;;;;2.08;1.35;;;16.50;66.90;;;;;;5134132;27;20168;-65
2023/11/08 10:53:27;;;;;;;2.08;1.20;;;16.50;67.00;;;;;;5099557;27;20194;-66
2023/11/08 10:55:53;;;;;;;1.98;1.20;;;16.50;66.90;;;;;;5133946;27;20168;-67
2023/11/08 10:58:19;;;;;;;0.82;0.80;;;16.50;66.80;;;;;;5099264;27;20713;-66
2023/11/08 11:00:51;;;;;;;4.07;1.15;;;16.50;67.00;;;;;;5099289;27;20172;-65
2023/11/08 11:03:16;;;;;;;1.50;1.10;;;16.50;67.00;;;;;;5098191;27;20283;-65
2023/11/08 11:05:45;;;;;;;2.08;1.25;;;16.50;66.60;;;;;;5134600;27;20586;-66
2023/11/08 11:08:13;;;;;;;1.15;0.95;;;16.40;66.90;;;;;;5134203;27;20184;-66
2023/11/08 11:10:39;;;;;;;1.30;0.90;;;16.40;67.00;;;;;;5115744;27;20623;-65
2023/11/08 11:13:04;;;;;;;1.15;1.05;;;16.40;66.90;;;;;;5133978;27;20176;-66
2023/11/08 11:15:32;;;;;;;0.88;0.80;;;16.40;66.90;;;;;;5133941;27;20168;-65
2023/11/08 11:17:58;;;;;;;3.00;1.08;;;16.40;66.90;;;;;;5115036;27;20245;-65
2023/11/08 11:20:24;;;;;;;1.08;0.98;;;16.40;66.90;;;;;;5115831;27;20184;-65
2023/11/08 11:22:49;;;;;;;2.25;1.00;;;16.40;66.80;;;;;;5098796;27;20196;-65
2023/11/08 11:25:50;;;;;;;1.70;1.17;;;16.40;66.80;;;;;;5133064;27;20202;-65
2023/11/08 11:28:34;;;;;;;2.10;1.23;;;16.40;66.80;;;;;;5133616;27;20177;-65
2023/11/08 11:31:32;;;;;;;1.15;0.90;;;16.50;66.90;;;;;;5132860;27;20840;-64
2023/11/08 11:33:58;;;;;;;1.27;0.93;;;16.40;66.70;;;;;;5133940;27;20207;-66
2023/11/08 11:36:24;;;;;;;1.35;1.00;;;16.50;66.70;;;;;;5133939;27;20213;-67
2023/11/08 11:39:12;;;;;;;1.88;1.00;;;16.50;66.60;;;;;;5133299;27;20175;-66
2023/11/08 11:41:39;;;;;;;1.60;1.10;;;16.50;66.60;;;;;;5134051;27;20179;-65
2023/11/08 11:44:05;;;;;;;3.65;1.20;;;16.50;66.60;;;;;;5133487;27;20211;-64
2023/11/08 11:46:33;;;;;;;3.08;1.00;;;16.50;66.50;;;;;;5133160;28;20169;-64
2023/11/08 11:49:09;;;;;;;1.77;1.05;;;16.50;66.50;;;;;;5133246;28;20686;-65
2023/11/08 11:51:39;;;;;;;2.80;1.42;;;16.50;66.60;;;;;;5133746;28;20168;-64
2023/11/08 11:54:05;;;;;;;1.48;0.90;;;16.50;66.60;;;;;;5114880;28;20252;-65
2023/11/08 11:56:31;;;;;;;2.05;1.10;;;16.50;66.60;;;;;;5133800;28;20301;-64
2023/11/08 11:58:58;;;;;;;1.63;0.95;;;16.50;66.60;;;;;;5132971;28;20537;-65
2023/11/08 12:01:23;;;;;;;0.95;0.70;;;16.50;67.00;;;;;;5132419;28;20177;-65
2023/11/08 12:03:49;;;;;;;1.80;1.05;;;16.50;66.60;;;;;;5133743;28;20580;-65
2023/11/08 12:06:15;;;;;;;1.00;0.90;;;16.40;66.60;;;;;;5132477;28;20515;-65
2023/11/08 12:08:40;;;;;;;1.10;0.75;;;16.40;66.50;;;;;;5133821;28;20184;-66
2023/11/08 12:11:16;;;;;;;1.83;0.82;;;16.40;66.50;;;;;;5133470;28;20531;-66
2023/11/08 12:13:52;;;;;;;2.10;1.05;;;16.40;66.60;;;;;;5132892;28;20175;-66
2023/11/08 12:16:18;;;;;;;1.15;0.95;;;16.40;66.60;;;;;;5133438;28;20176;-64
2023/11/08 12:18:47;;;;;;;1.33;1.20;;;16.50;66.60;;;;;;5133462;28;20191;-64
2023/11/08 12:21:14;;;;;;;2.80;0.80;;;16.40;66.60;;;;;;5114893;28;20173;-64
2023/11/08 12:23:47;;;;;;;1.48;0.90;;;16.40;66.50;;;;;;5115299;28;20211;-65
2023/11/08 12:26:12;;;;;;;1.73;1.00;;;16.40;66.50;;;;;;5133086;28;20632;-64
2023/11/08 12:28:40;;;;;;;1.35;0.82;;;16.40;66.60;;;;;;5134577;27;20174;-64
2023/11/08 12:31:06;;;;;;;1.40;0.93;;;16.40;66.70;;;;;;5136750;27;20180;-64
2023/11/08 12:33:33;;;;;;;2.88;1.20;;;16.40;66.50;;;;;;5137294;27;20183;-64
2023/11/08 12:35:59;;;;;;;1.55;1.10;;;16.40;66.60;;;;;;5136508;27;20176;-65
2023/11/08 12:38:25;;;;;;;3.13;1.25;;;16.30;66.70;;;;;;5101910;27;20552;-65
2023/11/08 12:41:07;;;;;;;1.20;1.10;;;16.30;66.80;;;;;;5137159;27;20165;-65
2023/11/08 12:43:33;;;;;;;1.77;1.15;;;16.30;66.50;;;;;;5136947;27;20705;-64
2023/11/08 12:46:06;;;;;;;1.45;1.02;;;16.30;66.40;;;;;;5136930;27;20188;-64